Grande Prairie Airport
CYQU : now visible

Airfield :











YOU CAN JOIN US ON...

 
LOGIN :

Register | Disclaimer

   EN    FR    IT 

 









Legend :    VFR   Marginal VFR   IFR   Intensive IFR   Very Intensive IFR
Visi :
Ceiling :
>= 8 km
>= 3000ft
5 to 8 km
1000 to 3000 ft
1500m to 5 km
500 to 1000 ft
800 to 1500m
200 to 500 ft
< 800m
< 200 ft
Symbols :   Thunderstorms  Fog  Heavy snow  Heavy precipitations  Wind > 20 kt






- Airport Elevation : 2195 ft
- IATA code : YQU


CYQU - Grande Prairie

CURRENT METAR :
  • 202000Z 00000KT 25SM FEW050 FEW240 23/05 A3015 RMK CU1CI1 SLP221 DENSITY ALT 3400FT

EXPIRED METARs :
  • 201900Z VRB03KT 25SM FEW050 FEW240 22/07 A3017 RMK CU1CI1 CI TR SLP227 DENSITY ALT 3300FT
  • 201800Z 00000KT 25SM FEW050 FEW240 20/09 A3018 RMK CU1CI1 CI TR SLP229 DENSITY ALT 3100FT

TAF TAF CYQU
Valid from the 20 at 19:00 until the 21 at 07:00 UTC


201838Z 2019/2107 VRB03KT P6SM FEW050 FEW240
BECMG 2022/2024 14006KT
FM210600 VRB03KT P6SM SKC RMK NXT FCST BY 210100Z
CZEG FIR / North America



MET'MAP, your aeronautical weather chart ! - Copyright ORBIFLY December 2007 - Disclaimer

ORBIFLY MET'MAP TEAM :

Programming & Development : Alexandra Zaïnal
Concept & original design : Baudouin d'Aumeries
Assistance for programming : Marc-Olivier Méhu
Technical & hardware support : Manuel Goepfert

Contact : metmap@orbifly.com




SOURCES & CREDITS :

   NOAA       Earth
Advisory